CST,Max TemperatureF,Mean TemperatureF,Min TemperatureF,Max Dew PointF,MeanDew PointF,Min DewpointF,Max Humidity, Mean Humidity, Min Humidity, Max Sea Level PressureIn, Mean Sea Level PressureIn, Min Sea Level PressureIn, Max VisibilityMiles, Mean VisibilityMiles, Min VisibilityMiles, Max Wind SpeedMPH, Mean Wind SpeedMPH, Max Gust SpeedMPH,PrecipitationIn, CloudCover, Events, WindDirDegrees
2013-2-1,66,47,28,36,28,21,76,50,28,30.31,30.23,30.15,10,10,10,21,5,28,0.00,0,,188
2013-2-2,66,48,30,45,31,25,100,58,22,30.35,30.26,30.17,10,10,1,17,5,22,0.00,0,,11
2013-2-3,64,48,32,50,40,28,87,67,47,30.35,30.20,29.96,10,10,10,22,8,29,0.00,2,,160
2013-2-4,73,60,44,50,38,27,87,48,20,29.99,29.94,29.88,10,10,10,18,10,24,0.00,0,,280
2013-2-5,77,55,33,41,30,27,81,47,18,30.07,29.99,29.93,10,10,10,9,2,,0.00,0,,359
2013-2-6,77,57,37,55,43,30,88,63,27,30.01,29.94,29.85,10,10,10,15,4,18,0.00,2,,192
2013-2-7,71,61,50,57,42,28,100,56,20,30.18,30.03,29.94,10,9,1,16,8,22,0.00,1,,301
2013-2-8,68,50,33,37,31,27,87,46,21,30.28,30.16,30.03,10,10,10,18,9,25,0.00,0,,104
2013-2-9,64,58,51,59,47,34,94,69,44,30.04,29.88,29.74,10,10,7,26,14,36,0.00,3,,174
2013-2-10,66,54,42,32,18,12,42,25,13,30.02,29.95,29.85,10,10,7,16,10,26,0.00,0,,334
2013-2-11,69,56,44,45,33,21,87,47,26,30.07,29.99,29.91,10,10,5,20,6,28,0.00,0,Rain,112
2013-2-12,62,50,35,46,32,14,100,55,16,30.14,29.99,29.87,10,10,4,32,12,43,0.00,1,,304
2013-2-13,62,42,23,32,21,14,93,52,15,30.18,30.11,30.02,10,10,10,8,2,,0.00,0,,310
2013-2-14,68,46,24,25,17,14,69,39,13,30.11,30.05,29.96,10,10,10,14,3,20,0.00,0,,250
2013-2-15,53,42,30,32,28,16,81,57,42,30.43,30.28,30.08,10,10,10,22,10,29,0.00,2,,36
2013-2-16,64,42,21,23,19,14,80,47,18,30.46,30.33,30.20,10,10,10,14,4,21,0.00,0,,211
2013-2-17,68,52,35,45,30,23,70,45,18,30.19,30.04,29.89,10,10,10,24,10,31,0.00,0,,186
2013-2-18,73,60,46,50,30,10,88,44,9,30.11,29.97,29.86,10,10,10,25,16,38,0.00,0,,270
2013-2-19,60,51,42,36,29,25,57,42,27,30.24,30.14,30.03,10,10,10,18,8,25,0.00,1,Rain,125
2013-2-20,64,57,50,57,49,32,100,77,44,30.03,29.79,29.57,10,8,2,24,14,36,0.00,5,Rain,161
2013-2-21,68,52,33,59,25,14,88,36,13,29.91,29.81,29.56,10,10,10,29,16,39,0.00,0,,292
2013-2-22,60,46,33,32,26,18,93,52,23,30.08,29.99,29.89,10,10,10,14,6,17,0.00,0,,36
2013-2-23,68,48,28,28,19,14,80,42,12,30.08,29.98,29.86,10,10,10,14,4,25,0.00,0,,303
2013-2-24,75,54,32,52,37,14,72,48,22,29.86,29.72,29.56,10,10,5,24,9,40,0.06,0,Rain-Thunderstorm,186
2013-2-25,51,44,35,39,25,18,71,47,30,29.99,29.85,29.71,10,10,7,40,19,58,0.00,0,Rain,314
2013-2-26,68,46,23,28,19,10,93,43,12,29.98,29.90,29.81,10,10,10,17,5,23,0.00,0,,214
2013-2-27,59,46,30,28,17,10,75,34,17,30.30,30.17,29.87,10,10,10,22,11,34,0.03,0,,351
2013-2-28,59,42,24,25,16,10,80,42,15,30.35,30.29,30.23,10,10,10,9,3,,0.00,0,,25